sensor_id;sensor_type;location;lat;lon;timestamp;P1;durP1;ratioP1;P2;durP2;ratioP2
15331;SDS011;7766;51.534;6.722;2022-10-31T00:00:31;12.17;;;8.33;;
15331;SDS011;7766;51.534;6.722;2022-10-31T00:01:33;12.67;;;8.07;;
15331;SDS011;7766;51.534;6.722;2022-10-31T00:02:35;14.03;;;8.53;;
15331;SDS011;7766;51.534;6.722;2022-10-31T00:03:36;13.13;;;8.60;;
15331;SDS011;7766;51.534;6.722;2022-10-31T00:04:37;15.80;;;7.87;;
15331;SDS011;7766;51.534;6.722;2022-10-31T00:05:42;14.50;;;8.30;;
15331;SDS011;7766;51.534;6.722;2022-10-31T00:06:44;14.30;;;8.27;;
15331;SDS011;7766;51.534;6.722;2022-10-31T00:07:45;11.77;;;8.90;;
15331;SDS011;7766;51.534;6.722;2022-10-31T00:08:47;13.20;;;8.43;;
15331;SDS011;7766;51.534;6.722;2022-10-31T00:09:52;11.53;;;8.40;;
15331;SDS011;7766;51.534;6.722;2022-10-31T00:10:53;14.00;;;8.40;;
15331;SDS011;7766;51.534;6.722;2022-10-31T00:11:54;15.53;;;8.43;;
15331;SDS011;7766;51.534;6.722;2022-10-31T00:12:55;15.97;;;8.17;;
15331;SDS011;7766;51.534;6.722;2022-10-31T00:13:57;12.77;;;8.27;;
15331;SDS011;7766;51.534;6.722;2022-10-31T00:14:59;14.53;;;7.53;;
15331;SDS011;7766;51.534;6.722;2022-10-31T00:15:59;14.87;;;9.00;;
15331;SDS011;7766;51.534;6.722;2022-10-31T00:17:00;13.90;;;8.00;;
15331;SDS011;7766;51.534;6.722;2022-10-31T00:18:02;14.47;;;8.53;;
15331;SDS011;7766;51.534;6.722;2022-10-31T00:19:05;14.23;;;8.57;;
15331;SDS011;7766;51.534;6.722;2022-10-31T00:20:07;13.70;;;8.57;;
15331;SDS011;7766;51.534;6.722;2022-10-31T00:21:08;13.57;;;7.93;;
15331;SDS011;7766;51.534;6.722;2022-10-31T00:22:09;14.33;;;8.27;;
15331;SDS011;7766;51.534;6.722;2022-10-31T00:23:10;15.37;;;8.87;;
15331;SDS011;7766;51.534;6.722;2022-10-31T00:24:11;13.67;;;8.13;;
15331;SDS011;7766;51.534;6.722;2022-10-31T00:25:12;15.53;;;8.33;;
15331;SDS011;7766;51.534;6.722;2022-10-31T00:26:14;13.73;;;8.33;;
15331;SDS011;7766;51.534;6.722;2022-10-31T00:27:14;14.10;;;8.20;;
15331;SDS011;7766;51.534;6.722;2022-10-31T00:28:15;14.27;;;9.07;;
15331;SDS011;7766;51.534;6.722;2022-10-31T00:29:16;14.13;;;8.67;;
15331;SDS011;7766;51.534;6.722;2022-10-31T00:30:17;11.97;;;8.60;;
15331;SDS011;7766;51.534;6.722;2022-10-31T00:31:18;11.80;;;8.47;;
15331;SDS011;7766;51.534;6.722;2022-10-31T00:32:19;11.93;;;7.80;;
15331;SDS011;7766;51.534;6.722;2022-10-31T00:33:20;15.13;;;8.43;;
15331;SDS011;7766;51.534;6.722;2022-10-31T00:34:21;17.93;;;8.40;;
15331;SDS011;7766;51.534;6.722;2022-10-31T00:35:22;16.67;;;8.63;;
15331;SDS011;7766;51.534;6.722;2022-10-31T00:36:23;13.03;;;8.10;;
15331;SDS011;7766;51.534;6.722;2022-10-31T00:37:24;14.37;;;8.03;;
15331;SDS011;7766;51.534;6.722;2022-10-31T00:38:26;18.93;;;9.70;;
15331;SDS011;7766;51.534;6.722;2022-10-31T00:39:27;12.97;;;8.47;;
15331;SDS011;7766;51.534;6.722;2022-10-31T00:40:28;12.27;;;8.37;;
15331;SDS011;7766;51.534;6.722;2022-10-31T00:41:29;16.17;;;9.37;;
15331;SDS011;7766;51.534;6.722;2022-10-31T00:42:30;15.80;;;9.27;;
15331;SDS011;7766;51.534;6.722;2022-10-31T00:43:31;20.20;;;8.10;;
15331;SDS011;7766;51.534;6.722;2022-10-31T00:44:32;13.17;;;8.47;;
15331;SDS011;7766;51.534;6.722;2022-10-31T00:45:33;12.47;;;7.90;;
15331;SDS011;7766;51.534;6.722;2022-10-31T00:46:34;14.17;;;8.63;;
15331;SDS011;7766;51.534;6.722;2022-10-31T00:47:34;11.93;;;7.33;;
15331;SDS011;7766;51.534;6.722;2022-10-31T00:48:35;9.80;;;6.90;;
15331;SDS011;7766;51.534;6.722;2022-10-31T00:49:36;12.97;;;7.83;;
15331;SDS011;7766;51.534;6.722;2022-10-31T00:50:37;11.97;;;7.23;;
15331;SDS011;7766;51.534;6.722;2022-10-31T00:51:39;11.50;;;7.47;;
15331;SDS011;7766;51.534;6.722;2022-10-31T00:52:40;15.57;;;8.10;;
15331;SDS011;7766;51.534;6.722;2022-10-31T00:53:40;12.87;;;7.70;;
15331;SDS011;7766;51.534;6.722;2022-10-31T00:54:41;12.87;;;7.77;;
15331;SDS011;7766;51.534;6.722;2022-10-31T00:55:42;13.43;;;7.87;;
15331;SDS011;7766;51.534;6.722;2022-10-31T00:56:43;11.37;;;7.57;;
15331;SDS011;7766;51.534;6.722;2022-10-31T00:57:48;13.77;;;8.43;;
15331;SDS011;7766;51.534;6.722;2022-10-31T00:58:49;14.00;;;7.90;;
15331;SDS011;7766;51.534;6.722;2022-10-31T00:59:50;11.90;;;8.03;;
15331;SDS011;7766;51.534;6.722;2022-10-31T01:00:51;14.10;;;8.47;;
15331;SDS011;7766;51.534;6.722;2022-10-31T01:01:54;11.90;;;8.10;;
15331;SDS011;7766;51.534;6.722;2022-10-31T01:02:55;13.13;;;7.03;;
15331;SDS011;7766;51.534;6.722;2022-10-31T01:03:56;12.07;;;7.80;;
15331;SDS011;7766;51.534;6.722;2022-10-31T01:04:57;10.07;;;6.80;;
15331;SDS011;7766;51.534;6.722;2022-10-31T01:06:05;11.53;;;7.30;;
15331;SDS011;7766;51.534;6.722;2022-10-31T01:07:08;10.50;;;7.40;;
15331;SDS011;7766;51.534;6.722;2022-10-31T01:08:11;14.40;;;7.40;;
15331;SDS011;7766;51.534;6.722;2022-10-31T01:09:11;15.67;;;8.23;;
15331;SDS011;7766;51.534;6.722;2022-10-31T01:10:12;13.90;;;8.47;;
15331;SDS011;7766;51.534;6.722;2022-10-31T01:11:14;15.03;;;8.60;;
15331;SDS011;7766;51.534;6.722;2022-10-31T01:12:17;11.83;;;8.13;;
15331;SDS011;7766;51.534;6.722;2022-10-31T01:13:18;16.60;;;7.90;;
15331;SDS011;7766;51.534;6.722;2022-10-31T01:14:19;13.77;;;8.03;;
15331;SDS011;7766;51.534;6.722;2022-10-31T01:15:20;13.47;;;7.47;;
15331;SDS011;7766;51.534;6.722;2022-10-31T01:16:23;14.23;;;7.60;;
15331;SDS011;7766;51.534;6.722;2022-10-31T01:17:25;15.87;;;8.37;;
15331;SDS011;7766;51.534;6.722;2022-10-31T01:18:27;15.57;;;8.00;;
15331;SDS011;7766;51.534;6.722;2022-10-31T01:19:28;13.17;;;7.90;;
15331;SDS011;7766;51.534;6.722;2022-10-31T01:20:29;11.70;;;8.23;;
15331;SDS011;7766;51.534;6.722;2022-10-31T01:21:31;12.90;;;8.13;;
15331;SDS011;7766;51.534;6.722;2022-10-31T01:22:33;12.60;;;8.63;;
15331;SDS011;7766;51.534;6.722;2022-10-31T01:23:34;14.57;;;7.93;;
15331;SDS011;7766;51.534;6.722;2022-10-31T01:24:35;12.27;;;7.73;;
15331;SDS011;7766;51.534;6.722;2022-10-31T01:25:36;15.67;;;8.33;;
15331;SDS011;7766;51.534;6.722;2022-10-31T01:26:37;14.40;;;8.07;;
15331;SDS011;7766;51.534;6.722;2022-10-31T01:27:38;16.73;;;9.00;;
15331;SDS011;7766;51.534;6.722;2022-10-31T01:28:42;20.60;;;9.97;;
15331;SDS011;7766;51.534;6.722;2022-10-31T01:29:49;17.70;;;10.90;;
15331;SDS011;7766;51.534;6.722;2022-10-31T01:30:50;15.47;;;10.57;;
15331;SDS011;7766;51.534;6.722;2022-10-31T01:31:51;16.70;;;10.37;;
15331;SDS011;7766;51.534;6.722;2022-10-31T01:32:52;15.03;;;9.07;;
15331;SDS011;7766;51.534;6.722;2022-10-31T01:33:53;15.03;;;8.87;;
15331;SDS011;7766;51.534;6.722;2022-10-31T01:34:55;17.27;;;8.33;;
15331;SDS011;7766;51.534;6.722;2022-10-31T01:35:55;15.17;;;8.00;;
15331;SDS011;7766;51.534;6.722;2022-10-31T01:36:56;12.00;;;8.30;;
15331;SDS011;7766;51.534;6.722;2022-10-31T01:37:57;13.37;;;7.67;;
15331;SDS011;7766;51.534;6.722;2022-10-31T01:39:00;14.80;;;8.50;;
15331;SDS011;7766;51.534;6.722;2022-10-31T01:40:03;12.20;;;7.67;;
15331;SDS011;7766;51.534;6.722;2022-10-31T01:41:04;10.13;;;7.43;;
15331;SDS011;7766;51.534;6.722;2022-10-31T01:42:06;14.00;;;7.93;;
15331;SDS011;7766;51.534;6.722;2022-10-31T01:43:13;14.17;;;7.47;;
15331;SDS011;7766;51.534;6.722;2022-10-31T01:45:15;14.83;;;7.93;;
15331;SDS011;7766;51.534;6.722;2022-10-31T01:46:20;15.60;;;8.37;;
15331;SDS011;7766;51.534;6.722;2022-10-31T01:47:41;14.73;;;9.00;;
15331;SDS011;7766;51.534;6.722;2022-10-31T01:48:45;13.63;;;8.50;;
15331;SDS011;7766;51.534;6.722;2022-10-31T01:50:53;14.23;;;7.80;;
15331;SDS011;7766;51.534;6.722;2022-10-31T01:51:58;12.80;;;7.57;;
15331;SDS011;7766;51.534;6.722;2022-10-31T01:53:03;13.10;;;7.70;;
15331;SDS011;7766;51.534;6.722;2022-10-31T01:54:08;10.97;;;8.20;;
15331;SDS011;7766;51.534;6.722;2022-10-31T01:55:15;16.97;;;8.17;;
15331;SDS011;7766;51.534;6.722;2022-10-31T01:56:25;14.47;;;7.40;;
15331;SDS011;7766;51.534;6.722;2022-10-31T01:57:26;14.83;;;7.73;;
15331;SDS011;7766;51.534;6.722;2022-10-31T01:58:28;12.67;;;7.10;;
15331;SDS011;7766;51.534;6.722;2022-10-31T01:59:32;11.77;;;7.07;;
15331;SDS011;7766;51.534;6.722;2022-10-31T02:00:37;15.90;;;8.83;;
15331;SDS011;7766;51.534;6.722;2022-10-31T02:01:41;13.63;;;7.10;;
15331;SDS011;7766;51.534;6.722;2022-10-31T02:02:42;13.13;;;7.20;;
15331;SDS011;7766;51.534;6.722;2022-10-31T02:03:45;14.93;;;7.23;;
15331;SDS011;7766;51.534;6.722;2022-10-31T02:04:47;15.40;;;7.70;;
15331;SDS011;7766;51.534;6.722;2022-10-31T02:05:48;11.90;;;7.37;;
15331;SDS011;7766;51.534;6.722;2022-10-31T02:06:51;16.80;;;8.07;;
15331;SDS011;7766;51.534;6.722;2022-10-31T02:09:29;16.63;;;7.40;;
15331;SDS011;7766;51.534;6.722;2022-10-31T02:10:32;14.37;;;7.37;;
15331;SDS011;7766;51.534;6.722;2022-10-31T02:11:35;15.73;;;7.77;;
15331;SDS011;7766;51.534;6.722;2022-10-31T02:12:37;12.97;;;6.97;;
15331;SDS011;7766;51.534;6.722;2022-10-31T02:13:39;14.70;;;7.13;;
15331;SDS011;7766;51.534;6.722;2022-10-31T02:14:40;13.73;;;7.17;;
15331;SDS011;7766;51.534;6.722;2022-10-31T02:15:41;13.10;;;7.13;;
15331;SDS011;7766;51.534;6.722;2022-10-31T02:16:44;13.93;;;7.40;;
15331;SDS011;7766;51.534;6.722;2022-10-31T02:17:45;14.90;;;7.73;;
15331;SDS011;7766;51.534;6.722;2022-10-31T02:18:47;13.23;;;7.23;;
15331;SDS011;7766;51.534;6.722;2022-10-31T02:19:52;14.17;;;7.50;;
15331;SDS011;7766;51.534;6.722;2022-10-31T02:21:22;12.37;;;8.00;;
15331;SDS011;7766;51.534;6.722;2022-10-31T02:23:03;12.43;;;7.03;;
15331;SDS011;7766;51.534;6.722;2022-10-31T02:26:49;14.93;;;7.30;;
15331;SDS011;7766;51.534;6.722;2022-10-31T02:30:10;13.27;;;7.77;;
15331;SDS011;7766;51.534;6.722;2022-10-31T02:31:35;15.77;;;7.47;;
15331;SDS011;7766;51.534;6.722;2022-10-31T02:32:54;12.90;;;7.33;;
15331;SDS011;7766;51.534;6.722;2022-10-31T02:37:13;13.27;;;8.77;;
15331;SDS011;7766;51.534;6.722;2022-10-31T02:38:23;12.27;;;8.33;;
15331;SDS011;7766;51.534;6.722;2022-10-31T02:41:07;15.57;;;8.73;;
15331;SDS011;7766;51.534;6.722;2022-10-31T02:47:44;12.27;;;8.07;;
15331;SDS011;7766;51.534;6.722;2022-10-31T02:48:48;16.60;;;8.53;;
15331;SDS011;7766;51.534;6.722;2022-10-31T02:51:02;16.37;;;9.20;;
15331;SDS011;7766;51.534;6.722;2022-10-31T02:52:16;16.83;;;9.47;;
15331;SDS011;7766;51.534;6.722;2022-10-31T02:53:21;15.50;;;8.70;;
15331;SDS011;7766;51.534;6.722;2022-10-31T02:54:23;14.03;;;8.57;;
15331;SDS011;7766;51.534;6.722;2022-10-31T02:56:26;14.23;;;8.53;;
15331;SDS011;7766;51.534;6.722;2022-10-31T02:57:28;14.10;;;7.97;;
15331;SDS011;7766;51.534;6.722;2022-10-31T02:58:32;14.53;;;8.30;;
15331;SDS011;7766;51.534;6.722;2022-10-31T02:59:35;12.50;;;8.00;;
15331;SDS011;7766;51.534;6.722;2022-10-31T03:00:48;11.93;;;7.70;;
15331;SDS011;7766;51.534;6.722;2022-10-31T03:03:14;18.10;;;8.57;;
15331;SDS011;7766;51.534;6.722;2022-10-31T03:05:58;12.73;;;8.43;;
15331;SDS011;7766;51.534;6.722;2022-10-31T03:09:46;16.10;;;8.13;;
15331;SDS011;7766;51.534;6.722;2022-10-31T03:10:56;13.60;;;7.40;;
15331;SDS011;7766;51.534;6.722;2022-10-31T03:12:17;17.53;;;7.40;;
15331;SDS011;7766;51.534;6.722;2022-10-31T03:13:40;10.73;;;7.30;;
15331;SDS011;7766;51.534;6.722;2022-10-31T03:15:03;11.13;;;7.53;;
15331;SDS011;7766;51.534;6.722;2022-10-31T03:16:21;12.60;;;7.23;;
15331;SDS011;7766;51.534;6.722;2022-10-31T03:17:33;17.87;;;6.80;;
15331;SDS011;7766;51.534;6.722;2022-10-31T03:19:52;11.00;;;7.30;;
15331;SDS011;7766;51.534;6.722;2022-10-31T03:20:56;12.43;;;7.30;;
15331;SDS011;7766;51.534;6.722;2022-10-31T03:22:04;17.47;;;8.03;;
15331;SDS011;7766;51.534;6.722;2022-10-31T03:23:22;12.53;;;7.00;;
15331;SDS011;7766;51.534;6.722;2022-10-31T03:24:25;11.13;;;6.97;;
15331;SDS011;7766;51.534;6.722;2022-10-31T03:25:30;10.63;;;7.10;;
15331;SDS011;7766;51.534;6.722;2022-10-31T03:26:35;10.47;;;6.73;;
15331;SDS011;7766;51.534;6.722;2022-10-31T03:27:39;14.10;;;7.60;;
15331;SDS011;7766;51.534;6.722;2022-10-31T03:28:48;11.77;;;6.97;;
15331;SDS011;7766;51.534;6.722;2022-10-31T03:29:56;10.67;;;6.97;;
15331;SDS011;7766;51.534;6.722;2022-10-31T03:31:00;10.27;;;6.80;;
15331;SDS011;7766;51.534;6.722;2022-10-31T03:32:12;10.50;;;7.37;;
15331;SDS011;7766;51.534;6.722;2022-10-31T03:33:21;10.20;;;7.20;;
15331;SDS011;7766;51.534;6.722;2022-10-31T03:34:27;11.53;;;7.40;;
15331;SDS011;7766;51.534;6.722;2022-10-31T03:35:29;9.90;;;6.90;;
15331;SDS011;7766;51.534;6.722;2022-10-31T03:36:33;9.77;;;6.90;;
15331;SDS011;7766;51.534;6.722;2022-10-31T03:37:38;10.23;;;6.53;;
15331;SDS011;7766;51.534;6.722;2022-10-31T03:38:40;11.87;;;7.73;;
15331;SDS011;7766;51.534;6.722;2022-10-31T03:39:43;9.13;;;6.70;;
15331;SDS011;7766;51.534;6.722;2022-10-31T03:40:47;11.43;;;6.10;;
15331;SDS011;7766;51.534;6.722;2022-10-31T03:41:55;15.90;;;7.60;;
15331;SDS011;7766;51.534;6.722;2022-10-31T03:43:00;13.17;;;7.00;;
15331;SDS011;7766;51.534;6.722;2022-10-31T03:44:14;11.07;;;7.40;;
15331;SDS011;7766;51.534;6.722;2022-10-31T03:45:21;12.70;;;7.27;;
15331;SDS011;7766;51.534;6.722;2022-10-31T03:46:28;14.53;;;8.07;;
15331;SDS011;7766;51.534;6.722;2022-10-31T03:47:29;14.50;;;7.67;;
15331;SDS011;7766;51.534;6.722;2022-10-31T03:48:31;11.50;;;7.73;;
15331;SDS011;7766;51.534;6.722;2022-10-31T03:49:33;11.50;;;7.77;;
15331;SDS011;7766;51.534;6.722;2022-10-31T03:50:45;13.10;;;7.77;;
15331;SDS011;7766;51.534;6.722;2022-10-31T03:55:12;14.90;;;7.50;;
15331;SDS011;7766;51.534;6.722;2022-10-31T03:56:40;10.63;;;7.70;;
15331;SDS011;7766;51.534;6.722;2022-10-31T03:57:52;11.47;;;7.63;;
15331;SDS011;7766;51.534;6.722;2022-10-31T03:59:07;14.70;;;7.57;;
15331;SDS011;7766;51.534;6.722;2022-10-31T04:00:19;14.17;;;7.37;;
15331;SDS011;7766;51.534;6.722;2022-10-31T04:01:20;13.40;;;7.67;;
15331;SDS011;7766;51.534;6.722;2022-10-31T04:02:25;11.97;;;7.47;;
15331;SDS011;7766;51.534;6.722;2022-10-31T04:03:33;11.23;;;7.10;;
15331;SDS011;7766;51.534;6.722;2022-10-31T04:04:37;11.50;;;7.07;;
15331;SDS011;7766;51.534;6.722;2022-10-31T04:05:39;11.40;;;7.97;;
15331;SDS011;7766;51.534;6.722;2022-10-31T04:06:44;13.37;;;8.70;;
15331;SDS011;7766;51.534;6.722;2022-10-31T04:07:47;15.10;;;9.00;;
15331;SDS011;7766;51.534;6.722;2022-10-31T04:08:57;13.80;;;8.03;;
15331;SDS011;7766;51.534;6.722;2022-10-31T04:10:02;12.93;;;7.97;;
15331;SDS011;7766;51.534;6.722;2022-10-31T04:11:09;9.93;;;7.57;;
15331;SDS011;7766;51.534;6.722;2022-10-31T04:12:14;12.70;;;7.90;;
15331;SDS011;7766;51.534;6.722;2022-10-31T04:13:19;12.93;;;7.73;;
15331;SDS011;7766;51.534;6.722;2022-10-31T04:14:24;11.17;;;7.60;;
15331;SDS011;7766;51.534;6.722;2022-10-31T04:15:27;12.73;;;7.70;;
15331;SDS011;7766;51.534;6.722;2022-10-31T04:16:31;11.50;;;7.37;;
15331;SDS011;7766;51.534;6.722;2022-10-31T04:17:33;12.10;;;7.33;;
15331;SDS011;7766;51.534;6.722;2022-10-31T04:18:38;13.60;;;7.63;;
15331;SDS011;7766;51.534;6.722;2022-10-31T04:19:39;16.00;;;7.93;;
15331;SDS011;7766;51.534;6.722;2022-10-31T04:20:41;12.73;;;8.30;;
15331;SDS011;7766;51.534;6.722;2022-10-31T04:21:42;11.70;;;8.07;;
15331;SDS011;7766;51.534;6.722;2022-10-31T04:22:43;13.37;;;8.30;;
15331;SDS011;7766;51.534;6.722;2022-10-31T04:23:45;15.13;;;8.30;;
15331;SDS011;7766;51.534;6.722;2022-10-31T04:24:46;12.73;;;8.47;;
15331;SDS011;7766;51.534;6.722;2022-10-31T04:25:46;12.70;;;8.40;;
15331;SDS011;7766;51.534;6.722;2022-10-31T04:26:47;12.70;;;7.63;;
15331;SDS011;7766;51.534;6.722;2022-10-31T04:27:48;14.30;;;8.90;;
15331;SDS011;7766;51.534;6.722;2022-10-31T04:28:49;15.57;;;9.27;;
15331;SDS011;7766;51.534;6.722;2022-10-31T04:29:49;12.77;;;8.83;;
15331;SDS011;7766;51.534;6.722;2022-10-31T04:30:51;13.87;;;8.17;;
15331;SDS011;7766;51.534;6.722;2022-10-31T04:31:52;13.27;;;8.73;;
15331;SDS011;7766;51.534;6.722;2022-10-31T04:32:53;13.67;;;8.70;;
15331;SDS011;7766;51.534;6.722;2022-10-31T04:33:54;10.80;;;7.77;;
15331;SDS011;7766;51.534;6.722;2022-10-31T04:34:55;14.50;;;9.30;;
15331;SDS011;7766;51.534;6.722;2022-10-31T04:35:56;12.80;;;9.23;;
15331;SDS011;7766;51.534;6.722;2022-10-31T04:36:57;15.00;;;9.03;;
15331;SDS011;7766;51.534;6.722;2022-10-31T04:37:58;13.97;;;9.50;;
15331;SDS011;7766;51.534;6.722;2022-10-31T04:38:59;15.03;;;9.63;;
15331;SDS011;7766;51.534;6.722;2022-10-31T04:39:59;14.17;;;8.40;;
15331;SDS011;7766;51.534;6.722;2022-10-31T04:41:00;12.87;;;9.13;;
15331;SDS011;7766;51.534;6.722;2022-10-31T04:42:01;19.37;;;9.30;;
15331;SDS011;7766;51.534;6.722;2022-10-31T04:43:01;11.43;;;8.40;;
15331;SDS011;7766;51.534;6.722;2022-10-31T04:44:03;12.17;;;7.40;;
15331;SDS011;7766;51.534;6.722;2022-10-31T04:45:04;11.17;;;7.50;;
15331;SDS011;7766;51.534;6.722;2022-10-31T04:46:05;15.10;;;8.30;;
15331;SDS011;7766;51.534;6.722;2022-10-31T04:47:06;11.83;;;7.80;;
15331;SDS011;7766;51.534;6.722;2022-10-31T04:48:07;11.27;;;7.60;;
15331;SDS011;7766;51.534;6.722;2022-10-31T04:49:08;14.50;;;7.90;;
15331;SDS011;7766;51.534;6.722;2022-10-31T04:50:09;10.83;;;6.97;;
15331;SDS011;7766;51.534;6.722;2022-10-31T04:51:10;16.80;;;8.20;;
15331;SDS011;7766;51.534;6.722;2022-10-31T04:52:11;13.30;;;7.63;;
15331;SDS011;7766;51.534;6.722;2022-10-31T04:53:12;16.27;;;7.50;;
15331;SDS011;7766;51.534;6.722;2022-10-31T04:54:13;11.93;;;6.00;;
15331;SDS011;7766;51.534;6.722;2022-10-31T04:55:14;15.70;;;7.70;;
15331;SDS011;7766;51.534;6.722;2022-10-31T04:56:16;10.40;;;7.10;;
15331;SDS011;7766;51.534;6.722;2022-10-31T04:57:17;13.67;;;7.10;;
15331;SDS011;7766;51.534;6.722;2022-10-31T04:58:18;13.77;;;7.67;;
15331;SDS011;7766;51.534;6.722;2022-10-31T04:59:19;16.97;;;9.27;;
15331;SDS011;7766;51.534;6.722;2022-10-31T05:00:20;12.80;;;8.60;;
15331;SDS011;7766;51.534;6.722;2022-10-31T05:01:22;14.20;;;8.27;;
15331;SDS011;7766;51.534;6.722;2022-10-31T05:02:23;13.63;;;7.87;;
15331;SDS011;7766;51.534;6.722;2022-10-31T05:03:24;11.43;;;7.43;;
15331;SDS011;7766;51.534;6.722;2022-10-31T05:04:25;10.77;;;7.37;;
15331;SDS011;7766;51.534;6.722;2022-10-31T05:05:27;12.00;;;7.97;;
15331;SDS011;7766;51.534;6.722;2022-10-31T05:06:29;11.47;;;7.60;;
15331;SDS011;7766;51.534;6.722;2022-10-31T05:07:30;12.10;;;7.90;;
15331;SDS011;7766;51.534;6.722;2022-10-31T05:08:31;13.60;;;7.50;;
15331;SDS011;7766;51.534;6.722;2022-10-31T05:09:32;11.83;;;7.57;;
15331;SDS011;7766;51.534;6.722;2022-10-31T05:10:33;13.70;;;8.50;;
15331;SDS011;7766;51.534;6.722;2022-10-31T05:11:34;13.93;;;8.13;;
15331;SDS011;7766;51.534;6.722;2022-10-31T05:12:35;10.13;;;7.30;;
15331;SDS011;7766;51.534;6.722;2022-10-31T05:13:37;12.50;;;8.10;;
15331;SDS011;7766;51.534;6.722;2022-10-31T05:14:38;14.43;;;8.13;;
15331;SDS011;7766;51.534;6.722;2022-10-31T05:15:39;14.67;;;8.57;;
15331;SDS011;7766;51.534;6.722;2022-10-31T05:16:40;12.80;;;7.80;;
15331;SDS011;7766;51.534;6.722;2022-10-31T05:17:41;13.80;;;8.17;;
15331;SDS011;7766;51.534;6.722;2022-10-31T05:18:43;12.23;;;7.63;;
15331;SDS011;7766;51.534;6.722;2022-10-31T05:19:44;13.60;;;8.00;;
15331;SDS011;7766;51.534;6.722;2022-10-31T05:20:45;15.03;;;9.43;;
15331;SDS011;7766;51.534;6.722;2022-10-31T05:21:46;13.37;;;8.43;;
15331;SDS011;7766;51.534;6.722;2022-10-31T05:22:47;10.97;;;8.33;;
15331;SDS011;7766;51.534;6.722;2022-10-31T05:23:49;13.00;;;8.63;;
15331;SDS011;7766;51.534;6.722;2022-10-31T05:24:52;16.73;;;8.13;;
15331;SDS011;7766;51.534;6.722;2022-10-31T05:25:52;14.70;;;9.67;;
15331;SDS011;7766;51.534;6.722;2022-10-31T05:26:53;18.60;;;9.70;;
15331;SDS011;7766;51.534;6.722;2022-10-31T05:27:55;14.57;;;9.03;;
15331;SDS011;7766;51.534;6.722;2022-10-31T05:28:56;15.10;;;9.20;;
15331;SDS011;7766;51.534;6.722;2022-10-31T05:29:57;17.63;;;9.70;;
15331;SDS011;7766;51.534;6.722;2022-10-31T05:30:58;11.63;;;8.23;;
15331;SDS011;7766;51.534;6.722;2022-10-31T05:31:59;19.27;;;8.87;;
15331;SDS011;7766;51.534;6.722;2022-10-31T05:33:00;13.17;;;8.77;;
15331;SDS011;7766;51.534;6.722;2022-10-31T05:34:01;15.47;;;7.97;;
15331;SDS011;7766;51.534;6.722;2022-10-31T05:35:02;15.03;;;8.57;;
15331;SDS011;7766;51.534;6.722;2022-10-31T05:36:04;12.33;;;8.83;;
15331;SDS011;7766;51.534;6.722;2022-10-31T05:37:05;13.93;;;8.00;;
15331;SDS011;7766;51.534;6.722;2022-10-31T05:38:05;12.73;;;8.50;;
15331;SDS011;7766;51.534;6.722;2022-10-31T05:39:06;20.13;;;9.30;;
15331;SDS011;7766;51.534;6.722;2022-10-31T05:40:08;15.70;;;8.73;;
15331;SDS011;7766;51.534;6.722;2022-10-31T05:41:10;12.33;;;8.20;;
15331;SDS011;7766;51.534;6.722;2022-10-31T05:42:11;16.87;;;8.83;;
15331;SDS011;7766;51.534;6.722;2022-10-31T05:43:11;12.33;;;7.87;;
15331;SDS011;7766;51.534;6.722;2022-10-31T05:44:12;11.00;;;8.27;;
15331;SDS011;7766;51.534;6.722;2022-10-31T05:45:14;14.03;;;8.00;;
15331;SDS011;7766;51.534;6.722;2022-10-31T05:46:16;17.47;;;9.10;;
15331;SDS011;7766;51.534;6.722;2022-10-31T05:47:17;16.00;;;10.00;;
15331;SDS011;7766;51.534;6.722;2022-10-31T05:48:18;13.97;;;8.77;;
15331;SDS011;7766;51.534;6.722;2022-10-31T05:49:19;15.00;;;8.43;;
15331;SDS011;7766;51.534;6.722;2022-10-31T05:50:20;14.03;;;8.13;;
15331;SDS011;7766;51.534;6.722;2022-10-31T05:51:22;14.90;;;9.27;;
15331;SDS011;7766;51.534;6.722;2022-10-31T05:52:23;15.57;;;8.97;;
15331;SDS011;7766;51.534;6.722;2022-10-31T05:53:24;14.40;;;8.63;;
15331;SDS011;7766;51.534;6.722;2022-10-31T05:54:25;12.37;;;9.07;;
15331;SDS011;7766;51.534;6.722;2022-10-31T05:55:25;12.33;;;9.07;;
15331;SDS011;7766;51.534;6.722;2022-10-31T05:56:27;12.83;;;8.40;;
15331;SDS011;7766;51.534;6.722;2022-10-31T05:57:28;16.50;;;8.70;;
15331;SDS011;7766;51.534;6.722;2022-10-31T05:58:31;10.17;;;8.13;;
15331;SDS011;7766;51.534;6.722;2022-10-31T05:59:32;10.50;;;7.70;;
15331;SDS011;7766;51.534;6.722;2022-10-31T06:00:33;12.70;;;8.40;;
15331;SDS011;7766;51.534;6.722;2022-10-31T06:01:34;11.83;;;8.17;;
15331;SDS011;7766;51.534;6.722;2022-10-31T06:02:35;12.30;;;8.87;;
15331;SDS011;7766;51.534;6.722;2022-10-31T06:03:36;17.87;;;8.67;;
15331;SDS011;7766;51.534;6.722;2022-10-31T06:04:37;16.30;;;9.00;;
15331;SDS011;7766;51.534;6.722;2022-10-31T06:05:38;14.57;;;9.10;;
15331;SDS011;7766;51.534;6.722;2022-10-31T06:06:39;12.40;;;9.17;;
15331;SDS011;7766;51.534;6.722;2022-10-31T06:07:40;14.63;;;9.47;;
15331;SDS011;7766;51.534;6.722;2022-10-31T06:08:41;14.13;;;8.93;;
15331;SDS011;7766;51.534;6.722;2022-10-31T06:09:42;12.97;;;9.40;;
15331;SDS011;7766;51.534;6.722;2022-10-31T06:10:43;13.10;;;9.90;;
15331;SDS011;7766;51.534;6.722;2022-10-31T06:11:44;12.57;;;8.73;;
15331;SDS011;7766;51.534;6.722;2022-10-31T06:12:45;11.20;;;8.03;;
15331;SDS011;7766;51.534;6.722;2022-10-31T06:13:46;14.30;;;8.73;;
15331;SDS011;7766;51.534;6.722;2022-10-31T06:14:47;12.13;;;8.23;;
15331;SDS011;7766;51.534;6.722;2022-10-31T06:15:48;14.23;;;8.17;;
15331;SDS011;7766;51.534;6.722;2022-10-31T06:16:49;13.07;;;8.93;;
15331;SDS011;7766;51.534;6.722;2022-10-31T06:18:03;12.57;;;8.40;;
15331;SDS011;7766;51.534;6.722;2022-10-31T06:19:05;14.90;;;9.13;;
15331;SDS011;7766;51.534;6.722;2022-10-31T06:20:06;12.03;;;9.17;;
15331;SDS011;7766;51.534;6.722;2022-10-31T06:21:08;12.07;;;9.07;;
15331;SDS011;7766;51.534;6.722;2022-10-31T06:22:09;13.63;;;9.03;;
15331;SDS011;7766;51.534;6.722;2022-10-31T06:23:11;15.13;;;9.07;;
15331;SDS011;7766;51.534;6.722;2022-10-31T06:24:12;13.17;;;9.40;;
15331;SDS011;7766;51.534;6.722;2022-10-31T06:25:14;15.77;;;9.60;;
15331;SDS011;7766;51.534;6.722;2022-10-31T06:26:15;14.03;;;10.43;;
15331;SDS011;7766;51.534;6.722;2022-10-31T06:27:16;15.00;;;9.43;;
15331;SDS011;7766;51.534;6.722;2022-10-31T06:28:18;14.27;;;9.50;;
15331;SDS011;7766;51.534;6.722;2022-10-31T06:29:19;14.67;;;9.83;;
15331;SDS011;7766;51.534;6.722;2022-10-31T06:30:20;12.87;;;9.93;;
15331;SDS011;7766;51.534;6.722;2022-10-31T06:31:21;12.90;;;9.83;;
15331;SDS011;7766;51.534;6.722;2022-10-31T06:32:22;15.90;;;9.80;;
15331;SDS011;7766;51.534;6.722;2022-10-31T06:33:23;17.87;;;9.83;;
15331;SDS011;7766;51.534;6.722;2022-10-31T06:34:24;19.57;;;10.47;;
15331;SDS011;7766;51.534;6.722;2022-10-31T06:35:25;20.37;;;10.67;;
15331;SDS011;7766;51.534;6.722;2022-10-31T06:36:25;17.50;;;9.57;;
15331;SDS011;7766;51.534;6.722;2022-10-31T06:37:26;18.57;;;10.13;;
15331;SDS011;7766;51.534;6.722;2022-10-31T06:38:27;15.00;;;9.97;;
15331;SDS011;7766;51.534;6.722;2022-10-31T06:39:29;14.13;;;8.80;;
15331;SDS011;7766;51.534;6.722;2022-10-31T06:40:29;12.43;;;8.60;;
15331;SDS011;7766;51.534;6.722;2022-10-31T06:41:30;13.83;;;8.87;;
15331;SDS011;7766;51.534;6.722;2022-10-31T06:42:31;18.80;;;9.00;;
15331;SDS011;7766;51.534;6.722;2022-10-31T06:43:32;14.70;;;9.20;;
15331;SDS011;7766;51.534;6.722;2022-10-31T06:44:33;14.97;;;8.77;;
15331;SDS011;7766;51.534;6.722;2022-10-31T06:45:34;11.93;;;8.67;;
15331;SDS011;7766;51.534;6.722;2022-10-31T06:46:35;14.67;;;8.83;;
15331;SDS011;7766;51.534;6.722;2022-10-31T06:47:35;14.60;;;8.17;;
15331;SDS011;7766;51.534;6.722;2022-10-31T06:48:36;14.00;;;8.37;;
15331;SDS011;7766;51.534;6.722;2022-10-31T06:49:37;15.27;;;9.47;;
15331;SDS011;7766;51.534;6.722;2022-10-31T06:50:38;12.13;;;7.87;;
15331;SDS011;7766;51.534;6.722;2022-10-31T06:51:39;14.10;;;8.90;;